Time;durP1;ratioP1;P1;durP2;ratioP2;P2;SDS_P1;SDS_P2;PMS_P1;PMS_P2;Temp;Humidity;BMP_temperature;BMP_pressure;BME280_temperature;BME280_humidity;BME280_pressure;Samples;Min_cycle;Max_cycle;Signal;HPM_P1;HPM_P2
2023/11/10 00:00:14;;;;;;;10.02;4.25;;;230.40;2252.80;;;;;;5065651;28;20031;-77
2023/11/10 00:02:41;;;;;;;7.00;3.75;;;230.40;2252.80;;;;;;5093156;28;20385;-77
2023/11/10 00:05:07;;;;;;;8.82;4.15;;;205.70;2252.80;;;;;;5098250;28;20587;-77
2023/11/10 00:07:34;;;;;;;14.45;3.70;;;230.40;2252.80;;;;;;5100978;28;20047;-77
2023/11/10 00:10:00;;;;;;;9.13;3.92;;;230.40;2252.80;;;;;;5103612;28;20016;-78
2023/11/10 00:12:27;;;;;;;7.35;4.00;;;230.40;2252.80;;;;;;5075240;28;20094;-77
2023/11/10 00:14:53;;;;;;;6.65;3.78;;;205.70;2252.80;;;;;;5067477;28;20059;-78
2023/11/10 00:17:18;;;;;;;11.65;5.22;;;205.70;2252.80;;;;;;5072806;28;20079;-77
2023/11/10 00:19:44;;;;;;;11.38;3.92;;;205.60;2252.80;;;;;;5080382;28;20043;-77
2023/11/10 00:22:10;;;;;;;;;;;205.70;2252.80;;;;;;5072920;28;20101;-77
2023/11/10 00:24:40;;;;;;;7.25;3.55;;;205.70;2252.80;;;;;;5068644;28;19919;-78
2023/11/10 00:27:09;;;;;;;10.93;4.70;;;205.60;2252.80;;;;;;5073475;28;20040;-77
2023/11/10 00:29:48;;;;;;;8.18;3.95;;;205.60;2252.80;;;;;;5067983;28;20051;-78
2023/11/10 00:32:14;;;;;;;8.00;3.97;;;205.50;2252.80;;;;;;5089027;28;20082;-77
2023/11/10 00:34:40;;;;;;;7.22;3.67;;;205.50;2252.80;;;;;;5110892;28;20020;-77
2023/11/10 00:37:06;;;;;;;7.13;3.30;;;205.20;2252.80;;;;;;5078515;28;20024;-77
2023/11/10 00:39:32;;;;;;;7.20;3.42;;;205.40;2252.80;;;;;;5090992;28;20031;-78
2023/11/10 00:41:58;;;;;;;7.25;4.35;;;205.40;2252.80;;;;;;5078129;28;20032;-78
2023/11/10 00:44:24;;;;;;;8.77;4.30;;;205.40;2252.80;;;;;;5092247;28;20028;-77
2023/11/10 00:46:51;;;;;;;6.18;3.95;;;205.40;2252.80;;;;;;5091001;28;20085;-78
2023/11/10 00:49:17;;;;;;;10.20;4.07;;;205.40;2252.80;;;;;;5084204;28;20477;-78
2023/11/10 00:51:43;;;;;;;10.88;4.47;;;205.40;2252.80;;;;;;5097698;28;20028;-78
2023/11/10 00:54:09;;;;;;;8.32;4.03;;;205.40;2252.80;;;;;;5091952;28;20024;-77
2023/11/10 00:56:35;;;;;;;6.95;3.40;;;205.40;2252.80;;;;;;5077891;28;20160;-78
2023/11/10 00:59:01;;;;;;;;;;;205.40;2252.80;;;;;;5086227;28;20024;-78
2023/11/10 01:01:28;;;;;;;5.18;3.15;;;205.50;2252.80;;;;;;5068632;28;19911;-76
2023/11/10 01:03:58;;;;;;;6.40;3.90;;;205.60;2252.80;;;;;;5114084;28;20039;-78
2023/11/10 01:06:24;;;;;;;7.00;3.30;;;205.60;2252.80;;;;;;5114504;28;20377;-78
2023/11/10 01:08:50;;;;;;;6.03;3.05;;;230.60;2252.80;;;;;;5095014;28;20413;-78
2023/11/10 01:11:16;;;;;;;10.02;3.42;;;205.70;2252.80;;;;;;5095875;28;20114;-78
2023/11/10 01:13:42;;;;;;;;;;;205.60;2252.80;;;;;;5101374;28;20026;-79
2023/11/10 01:16:07;;;;;;;7.35;3.33;;;205.60;2252.80;;;;;;5076439;28;19927;-77
2023/11/10 01:18:33;;;;;;;7.95;3.78;;;205.70;2252.80;;;;;;5069318;28;20086;-78
2023/11/10 01:20:59;;;;;;;;;;;205.60;2252.80;;;;;;5095698;28;20012;-78
2023/11/10 01:23:26;;;;;;;9.97;3.53;;;205.70;2252.80;;;;;;5061591;28;19908;-78
2023/11/10 01:25:52;;;;;;;6.03;3.03;;;205.70;2252.80;;;;;;5057495;28;20135;-78
2023/11/10 01:28:20;;;;;;;11.38;4.00;;;230.40;2252.80;;;;;;5057316;28;20494;-78
2023/11/10 01:30:46;;;;;;;9.10;3.67;;;230.40;2252.80;;;;;;5081829;28;20035;-78
2023/11/10 01:33:12;;;;;;;7.90;3.80;;;230.50;2252.80;;;;;;5063785;28;20047;-77
2023/11/10 01:35:38;;;;;;;7.82;4.55;;;230.60;2252.80;;;;;;5095428;28;20485;-77
2023/11/10 01:38:03;;;;;;;10.63;4.00;;;230.60;2252.80;;;;;;5092478;28;20024;-77
2023/11/10 01:40:36;;;;;;;;;;;230.60;2252.80;;;;;;5096731;28;20048;-76
2023/11/10 01:43:14;;;;;;;6.03;2.75;;;230.60;2252.80;;;;;;5072400;28;19908;-77
2023/11/10 01:45:40;;;;;;;6.85;2.90;;;230.60;2252.80;;;;;;5070959;28;20067;-77
2023/11/10 01:48:08;;;;;;;5.28;2.72;;;230.70;2252.80;;;;;;5063427;28;20367;-77
2023/11/10 01:50:34;;;;;;;7.45;2.45;;;230.70;2252.80;;;;;;5069058;28;20033;-78
2023/11/10 01:53:01;;;;;;;6.10;2.50;;;230.80;2252.80;;;;;;5091571;28;20092;-78
2023/11/10 01:55:27;;;;;;;4.78;2.35;;;230.90;2252.80;;;;;;5069592;28;20028;-77
2023/11/10 01:57:54;;;;;;;6.15;2.80;;;230.90;2252.80;;;;;;5076019;28;20017;-78
2023/11/10 02:00:21;;;;;;;5.18;2.25;;;230.90;2252.80;;;;;;5051413;28;20494;-78
2023/11/10 02:02:48;;;;;;;6.60;2.45;;;231.00;2252.80;;;;;;5081262;28;20081;-78
2023/11/10 02:05:14;;;;;;;5.63;2.20;;;231.10;2252.80;;;;;;5075815;28;20033;-79
2023/11/10 02:07:40;;;;;;;4.50;2.03;;;231.10;2252.80;;;;;;5062662;28;20035;-77
2023/11/10 02:10:07;;;;;;;3.67;1.90;;;231.10;2252.80;;;;;;5068526;28;20025;-78
2023/11/10 02:15:56;;;;;;;2.83;1.88;;;231.20;2252.80;;;;;;4720780;22;20054;-78
2023/11/10 02:18:22;;;;;;;4.72;2.08;;;231.20;2252.80;;;;;;5015656;28;20030;-79
2023/11/10 02:20:47;;;;;;;4.93;2.17;;;231.20;2252.80;;;;;;5016928;28;20037;-79
2023/11/10 02:23:13;;;;;;;;;;;231.20;2252.80;;;;;;5001141;28;20049;-78
2023/11/10 02:25:40;;;;;;;6.45;2.45;;;231.30;2252.80;;;;;;5013943;28;20282;-79
2023/11/10 02:28:06;;;;;;;5.32;2.35;;;231.30;2252.80;;;;;;5016688;28;20038;-79
2023/11/10 02:30:31;;;;;;;8.32;2.42;;;231.30;2252.80;;;;;;5016781;28;20022;-79
2023/11/10 02:32:57;;;;;;;5.10;2.53;;;231.30;2252.80;;;;;;4998694;28;20033;-79
2023/11/10 02:35:22;;;;;;;;;;;231.30;2252.80;;;;;;5016820;28;20403;-78
2023/11/10 02:37:48;;;;;;;3.80;2.28;;;231.30;2252.80;;;;;;5007644;28;19905;-79
2023/11/10 02:40:14;;;;;;;;;;;231.30;2252.80;;;;;;5016530;28;20092;-77
2023/11/10 02:42:39;;;;;;;4.30;1.80;;;256.00;2252.80;;;;;;5008509;28;19945;-77
2023/11/10 02:45:05;;;;;;;;;;;231.30;2252.80;;;;;;5001371;28;20486;-78
2023/11/10 02:47:32;;;;;;;6.72;2.65;;;256.00;2252.80;;;;;;5007468;28;19943;-79
2023/11/10 02:49:57;;;;;;;3.63;1.90;;;256.00;2252.80;;;;;;4996477;28;20014;-79
2023/11/10 02:52:23;;;;;;;5.55;2.53;;;231.30;2252.80;;;;;;4998622;28;20018;-79
2023/11/10 02:54:49;;;;;;;;;;;231.30;2252.80;;;;;;4997630;28;20025;-78
2023/11/10 02:57:14;;;;;;;3.15;1.77;;;256.00;2252.80;;;;;;5011474;28;19909;-78
2023/11/10 02:59:40;;;;;;;;;;;231.30;2252.80;;;;;;5005486;28;20030;-78
2023/11/10 03:02:06;;;;;;;4.97;2.13;;;231.30;2252.80;;;;;;5013418;28;19906;-79
2023/11/10 03:04:31;;;;;;;;;;;231.30;2252.80;;;;;;5015059;28;20071;-79
2023/11/10 03:06:57;;;;;;;6.55;2.58;;;231.30;2252.80;;;;;;5014351;28;19971;-78
2023/11/10 03:09:23;;;;;;;3.47;2.20;;;231.30;2252.80;;;;;;4997440;28;20030;-78
2023/11/10 03:11:49;;;;;;;8.85;2.63;;;231.30;2252.80;;;;;;4996358;28;20034;-79
2023/11/10 03:14:14;;;;;;;;;;;231.30;2252.80;;;;;;5015325;28;20018;-79
2023/11/10 03:16:40;;;;;;;3.17;2.15;;;231.30;2252.80;;;;;;5023406;28;20370;-79
2023/11/10 03:19:06;;;;;;;5.97;2.08;;;231.20;2252.80;;;;;;5054915;28;20071;-79
2023/11/10 03:21:32;;;;;;;4.20;2.03;;;231.20;2252.80;;;;;;5055964;28;20025;-79
2023/11/10 03:23:58;;;;;;;3.85;2.20;;;231.20;2252.80;;;;;;5038742;28;20018;-78
2023/11/10 03:26:24;;;;;;;5.25;3.40;;;231.20;2252.80;;;;;;5032445;28;20024;-79
2023/11/10 03:28:49;;;;;;;8.40;2.58;;;231.20;2252.80;;;;;;5033062;28;20095;-79
2023/11/10 03:31:16;;;;;;;5.60;2.25;;;231.20;2252.80;;;;;;5032532;28;20018;-78
2023/11/10 03:33:42;;;;;;;6.82;2.30;;;231.10;2252.80;;;;;;5032109;28;20044;-78
2023/11/10 03:36:09;;;;;;;7.75;2.60;;;231.10;2252.80;;;;;;5032223;28;20025;-78
2023/11/10 03:38:35;;;;;;;5.10;2.10;;;231.10;2252.80;;;;;;5032233;28;20075;-78
2023/11/10 03:41:00;;;;;;;6.72;2.58;;;231.10;2252.80;;;;;;5032169;28;20112;-79
2023/11/10 03:43:26;;;;;;;4.03;2.13;;;231.00;2252.80;;;;;;5032274;28;20052;-78
2023/11/10 03:45:52;;;;;;;4.43;2.25;;;231.00;2252.80;;;;;;5031663;28;20509;-79
2023/11/10 03:48:18;;;;;;;3.70;2.17;;;231.00;2252.80;;;;;;5032604;28;20033;-79
2023/11/10 03:50:44;;;;;;;7.53;2.13;;;231.00;2252.80;;;;;;5032341;28;20104;-78
2023/11/10 03:53:10;;;;;;;5.85;2.72;;;231.00;2252.80;;;;;;5032002;28;20032;-78
2023/11/10 03:55:35;;;;;;;;;;;231.00;2252.80;;;;;;5032607;28;20021;-78
2023/11/10 03:58:01;;;;;;;3.20;1.83;;;231.00;2252.80;;;;;;5032148;28;19912;-78
2023/11/10 04:00:26;;;;;;;;;;;231.10;2252.80;;;;;;5032203;28;20463;-79
2023/11/10 04:02:53;;;;;;;5.20;2.28;;;230.90;2252.80;;;;;;5032118;28;20402;-78
2023/11/10 04:05:18;;;;;;;2.90;1.70;;;230.90;2252.80;;;;;;5031247;28;20041;-78
2023/11/10 04:07:44;;;;;;;4.80;1.90;;;230.90;2252.80;;;;;;5032194;28;20037;-78
2023/11/10 04:10:13;;;;;;;6.97;2.25;;;230.90;2252.80;;;;;;5026206;28;20472;-78
2023/11/10 04:12:39;;;;;;;4.47;2.33;;;230.90;2252.80;;;;;;5012484;28;20469;-78
2023/11/10 04:15:06;;;;;;;8.95;2.67;;;230.90;2252.80;;;;;;5032318;28;20049;-79
2023/11/10 04:17:31;;;;;;;6.00;1.85;;;230.90;2252.80;;;;;;5030608;28;20088;-78
2023/11/10 04:19:57;;;;;;;3.22;1.45;;;230.90;2252.80;;;;;;5028413;28;20041;-76
2023/11/10 04:22:23;;;;;;;;;;;230.90;2252.80;;;;;;5022377;28;20036;-77
2023/11/10 04:24:49;;;;;;;5.60;2.03;;;230.90;2252.80;;;;;;5031317;28;20385;-76
2023/11/10 04:27:14;;;;;;;3.50;1.70;;;230.90;2252.80;;;;;;5032447;28;20037;-77
2023/11/10 04:29:40;;;;;;;3.75;2.33;;;230.90;2252.80;;;;;;5032465;28;20017;-77
2023/11/10 04:32:06;;;;;;;;;;;230.90;2252.80;;;;;;5033118;28;20038;-76
2023/11/10 04:34:32;;;;;;;3.78;1.90;;;230.90;2252.80;;;;;;5031130;28;19916;-77
2023/11/10 04:36:57;;;;;;;8.55;2.25;;;230.90;2252.80;;;;;;5032740;28;20026;-77
2023/11/10 04:39:23;;;;;;;6.03;2.05;;;230.90;2252.80;;;;;;5031025;28;20394;-77
2023/11/10 04:41:49;;;;;;;4.63;2.20;;;230.90;2252.80;;;;;;5031283;28;20047;-76
2023/11/10 04:44:16;;;;;;;3.53;2.22;;;230.90;2252.80;;;;;;5031078;28;20458;-77
2023/11/10 04:46:42;;;;;;;4.18;2.55;;;231.10;2252.80;;;;;;5030691;28;20045;-76
2023/11/10 04:49:11;;;;;;;3.70;1.90;;;230.90;2252.80;;;;;;5032236;28;20018;-78
2023/11/10 04:51:37;;;;;;;4.55;2.40;;;230.80;2252.80;;;;;;5032342;28;20033;-77
2023/11/10 04:54:04;;;;;;;9.13;2.78;;;230.90;2252.80;;;;;;5031724;28;20025;-76
2023/11/10 04:56:33;;;;;;;4.32;2.35;;;230.90;2252.80;;;;;;5032517;28;20422;-77
2023/11/10 04:58:59;;;;;;;5.32;2.40;;;230.90;2252.80;;;;;;5030574;28;20091;-77
2023/11/10 05:01:26;;;;;;;6.72;2.00;;;230.90;2252.80;;;;;;5032340;28;20472;-75
2023/11/10 05:03:52;;;;;;;4.60;2.20;;;230.90;2252.80;;;;;;5031973;28;20020;-77
2023/11/10 05:06:30;;;;;;;4.90;2.13;;;230.90;2252.80;;;;;;5030841;28;20117;-78
2023/11/10 05:08:56;;;;;;;5.57;1.83;;;230.90;2252.80;;;;;;5031694;28;20036;-76
2023/11/10 05:11:22;;;;;;;8.98;2.72;;;230.80;2252.80;;;;;;5030001;28;20037;-76
2023/11/10 05:13:48;;;;;;;3.90;2.05;;;230.80;2252.80;;;;;;5030232;28;20051;-78
2023/11/10 05:16:16;;;;;;;5.78;2.65;;;230.90;2252.80;;;;;;5030111;28;20049;-77
2023/11/10 05:18:42;;;;;;;4.97;2.28;;;230.90;2252.80;;;;;;5030979;28;20029;-77
2023/11/10 05:21:09;;;;;;;3.67;1.88;;;230.90;2252.80;;;;;;5031659;28;20017;-77
2023/11/10 05:23:35;;;;;;;3.72;2.03;;;230.90;2252.80;;;;;;5031954;28;20021;-77
2023/11/10 05:26:01;;;;;;;4.22;2.10;;;230.90;2252.80;;;;;;5027135;28;20029;-76
2023/11/10 05:28:27;;;;;;;4.63;2.00;;;230.90;2252.80;;;;;;5023885;28;20034;-77
2023/11/10 05:30:53;;;;;;;7.78;2.65;;;230.90;2252.80;;;;;;5028372;28;20391;-78
2023/11/10 05:33:19;;;;;;;6.30;2.80;;;230.90;2252.80;;;;;;5032240;28;20025;-77
2023/11/10 05:35:45;;;;;;;6.57;3.33;;;230.90;2252.80;;;;;;5030436;28;20017;-76
2023/11/10 05:38:11;;;;;;;;;;;231.00;2252.80;;;;;;5026805;28;20029;-77
2023/11/10 05:40:37;;;;;;;13.68;6.75;;;230.90;2252.80;;;;;;5025263;28;20370;-76
2023/11/10 05:43:03;;;;;;;;;;;230.90;2252.80;;;;;;5025718;28;20049;-76
2023/11/10 05:45:29;;;;;;;19.67;10.50;;;230.90;2252.80;;;;;;5040017;28;19920;-76
2023/11/10 05:47:55;;;;;;;17.02;11.48;;;230.90;2252.80;;;;;;5036629;28;20446;-76
2023/11/10 05:50:21;;;;;;;17.65;8.68;;;230.90;2252.80;;;;;;5036716;28;20025;-76
2023/11/10 05:52:46;;;;;;;;;;;231.00;2252.80;;;;;;5028071;28;20033;-75
2023/11/10 05:55:12;;;;;;;7.13;4.60;;;231.00;2252.80;;;;;;5025461;28;19959;-75
2023/11/10 05:57:38;;;;;;;5.50;3.00;;;231.10;2252.80;;;;;;5027164;28;20498;-75
2023/11/10 06:00:06;;;;;;;5.30;3.08;;;231.00;2252.80;;;;;;5029716;28;20056;-75
2023/11/10 06:02:32;;;;;;;4.80;3.13;;;231.10;2252.80;;;;;;5021104;28;20034;-75
2023/11/10 06:04:58;;;;;;;7.88;2.75;;;231.10;2252.80;;;;;;5024053;28;20030;-75
2023/11/10 06:07:24;;;;;;;4.28;2.80;;;231.10;2252.80;;;;;;5036451;28;20145;-76
2023/11/10 06:09:50;;;;;;;;;;;231.10;2252.80;;;;;;5027090;28;20083;-77
2023/11/10 06:12:17;;;;;;;4.23;2.50;;;231.10;2252.80;;;;;;5027905;28;19913;-79
2023/11/10 06:14:43;;;;;;;5.20;2.17;;;231.10;2252.80;;;;;;5031067;28;20045;-79
2023/11/10 06:17:09;;;;;;;7.18;2.58;;;231.10;2252.80;;;;;;5042994;28;20045;-79
2023/11/10 06:19:35;;;;;;;6.55;2.92;;;231.20;2252.80;;;;;;5034097;28;20036;-80
2023/11/10 06:22:00;;;;;;;;;;;231.20;2252.80;;;;;;5027093;28;20033;-79
2023/11/10 06:24:26;;;;;;;4.25;2.35;;;231.20;2252.80;;;;;;5026342;28;20377;-80
2023/11/10 06:26:52;;;;;;;7.95;2.47;;;231.20;2252.80;;;;;;5026771;28;20032;-79
2023/11/10 06:29:18;;;;;;;6.25;2.45;;;231.20;2252.80;;;;;;5035991;28;20032;-78
2023/11/10 06:31:45;;;;;;;7.30;2.83;;;231.30;2252.80;;;;;;5030359;28;20033;-78
2023/11/10 06:34:10;;;;;;;10.02;2.83;;;231.30;2252.80;;;;;;5055804;28;20108;-76
2023/11/10 06:36:36;;;;;;;3.40;2.15;;;231.30;2252.80;;;;;;5036537;28;20191;-76
2023/11/10 06:39:02;;;;;;;4.30;2.28;;;256.00;2252.80;;;;;;5037639;28;20470;-79
2023/11/10 06:41:28;;;;;;;7.47;3.88;;;256.00;2252.80;;;;;;5048552;28;20065;-78
2023/11/10 06:43:54;;;;;;;6.00;2.35;;;231.30;2252.80;;;;;;5034456;28;20115;-79
2023/11/10 06:46:22;;;;;;;9.50;3.10;;;256.00;2252.80;;;;;;5033906;28;20045;-77
2023/11/10 06:48:52;;;;;;;5.93;2.40;;;256.10;2252.80;;;;;;5036476;28;20395;-75
2023/11/10 06:51:18;;;;;;;5.40;2.42;;;256.10;2252.80;;;;;;5036392;28;20032;-76
2023/11/10 06:53:44;;;;;;;5.03;2.75;;;256.10;2252.80;;;;;;5045259;28;20056;-76
2023/11/10 06:56:10;;;;;;;8.25;2.45;;;256.10;2252.80;;;;;;5043805;28;21273;-74
2023/11/10 06:58:37;;;;;;;5.03;2.58;;;256.20;2252.80;;;;;;5050581;28;20112;-76
2023/11/10 07:01:05;;;;;;;7.43;2.28;;;256.20;2252.80;;;;;;5026949;28;20025;-76
2023/11/10 07:03:31;;;;;;;5.60;2.33;;;256.30;2252.80;;;;;;5051297;28;20102;-77
2023/11/10 07:05:57;;;;;;;6.30;2.53;;;256.40;2252.80;;;;;;5033393;28;20033;-77
2023/11/10 07:08:23;;;;;;;;;;;256.50;2252.80;;;;;;5048401;28;20040;-88
2023/11/10 07:10:53;;;;;;;5.13;2.28;;;256.70;2252.80;;;;;;5036693;28;19963;-79
2023/11/10 07:13:19;;;;;;;5.65;2.33;;;256.70;2252.80;;;;;;5031014;28;20538;-79
2023/11/10 07:15:48;;;;;;;7.50;2.72;;;256.80;2252.80;;;;;;5034627;28;20083;-79
2023/11/10 07:18:14;;;;;;;8.07;2.70;;;256.90;2252.80;;;;;;5042043;28;20029;-79
2023/11/10 07:20:44;;;;;;;4.38;2.42;;;281.60;2278.40;;;;;;5017992;28;20036;-79
2023/11/10 07:23:10;;;;;;;6.00;2.47;;;281.60;2278.40;;;;;;5029125;28;20056;-78
2023/11/10 07:25:37;;;;;;;5.80;2.45;;;256.90;2252.80;;;;;;5053675;28;20507;-79
2023/11/10 07:28:03;;;;;;;4.65;2.40;;;281.70;2278.40;;;;;;5053033;28;20033;-79
2023/11/10 07:30:29;;;;;;;3.90;2.17;;;281.80;2278.40;;;;;;5037323;28;20017;-78
2023/11/10 07:32:55;;;;;;;6.15;2.40;;;281.80;2278.40;;;;;;5023064;28;20037;-79
2023/11/10 07:35:21;;;;;;;8.90;2.53;;;281.80;2278.40;;;;;;5055179;28;20433;-77
2023/11/10 07:37:48;;;;;;;6.57;2.90;;;281.90;2278.40;;;;;;5054202;28;20540;-77
2023/11/10 07:40:15;;;;;;;3.97;2.17;;;281.90;2278.40;;;;;;5036412;28;20055;-75
2023/11/10 07:42:46;;;;;;;6.00;2.30;;;282.00;2278.40;;;;;;5035985;28;20112;-76
2023/11/10 07:45:15;;;;;;;4.97;2.17;;;282.00;2278.40;;;;;;5036866;28;20036;-82
2023/11/10 07:47:49;;;;;;;5.65;2.78;;;282.00;2278.40;;;;;;5037238;28;20036;-83
2023/11/10 07:50:18;;;;;;;4.78;2.60;;;282.10;2278.40;;;;;;5055063;28;20017;-82
2023/11/10 07:52:46;;;;;;;7.50;2.63;;;282.10;2278.40;;;;;;5037468;28;20029;-81
2023/11/10 07:55:13;;;;;;;9.30;3.15;;;282.10;2278.40;;;;;;5037661;28;20025;-84
2023/11/10 07:57:39;;;;;;;5.60;3.05;;;282.00;2278.40;;;;;;5024695;28;20508;-83
2023/11/10 08:00:07;;;;;;;6.15;2.97;;;282.20;2278.40;;;;;;5037653;28;20028;-80
2023/11/10 08:02:35;;;;;;;10.90;3.90;;;282.20;2278.40;;;;;;5037455;28;20129;-80
2023/11/10 08:05:01;;;;;;;10.50;2.53;;;282.30;2278.40;;;;;;5036940;28;20573;-79
2023/11/10 08:07:28;;;;;;;4.43;2.60;;;282.30;2278.40;;;;;;5037245;28;20036;-81
2023/11/10 08:09:55;;;;;;;3.80;2.25;;;282.20;2278.40;;;;;;5054804;28;20032;-79
2023/11/10 08:12:21;;;;;;;5.05;2.65;;;282.30;2278.40;;;;;;5036420;28;20033;-83
2023/11/10 08:14:47;;;;;;;7.65;2.47;;;282.30;2278.40;;;;;;5036351;28;20060;-82
2023/11/10 08:17:14;;;;;;;4.63;2.65;;;282.30;2278.40;;;;;;5036540;28;20467;-81
2023/11/10 08:19:41;;;;;;;4.93;2.15;;;282.20;2278.40;;;;;;5036520;28;20039;-79
2023/11/10 08:22:07;;;;;;;3.90;2.08;;;307.20;2304.00;;;;;;5036552;28;20021;-79
2023/11/10 08:24:33;;;;;;;4.15;2.60;;;282.20;2278.40;;;;;;5036112;28;20017;-77
2023/11/10 08:26:59;;;;;;;5.60;2.70;;;282.30;2278.40;;;;;;5036089;28;20433;-85
2023/11/10 08:29:24;;;;;;;;;;;282.20;2278.40;;;;;;5037320;28;20433;-84
2023/11/10 08:31:52;;;;;;;11.10;2.95;;;282.20;2278.40;;;;;;5064304;28;19963;-76
2023/11/10 08:34:21;;;;;;;5.70;2.40;;;282.30;2278.40;;;;;;5035321;28;20478;-76
2023/11/10 08:36:48;;;;;;;11.13;3.80;;;282.30;2278.40;;;;;;5035854;28;20175;-79
2023/11/10 08:39:16;;;;;;;5.38;2.78;;;282.50;2278.40;;;;;;5035766;28;21635;-81
2023/11/10 08:41:46;;;;;;;7.55;2.47;;;282.50;2278.40;;;;;;5036728;28;20471;-81
2023/11/10 08:44:11;;;;;;;9.05;3.28;;;307.20;2304.00;;;;;;5036367;28;20043;-82
2023/11/10 08:46:37;;;;;;;6.22;2.50;;;307.30;2304.00;;;;;;5036304;28;20495;-82
2023/11/10 08:49:04;;;;;;;8.50;2.70;;;307.30;2304.00;;;;;;5035243;28;20025;-81
2023/11/10 08:51:30;;;;;;;8.20;2.72;;;307.40;2304.00;;;;;;5035326;28;20029;-79
2023/11/10 08:53:57;;;;;;;4.60;2.70;;;307.50;2304.00;;;;;;5035783;28;20036;-78
2023/11/10 08:56:23;;;;;;;4.32;2.30;;;307.60;2304.00;;;;;;5035470;28;20021;-78
2023/11/10 08:58:48;;;;;;;5.57;3.30;;;307.80;2304.00;;;;;;5035146;28;20082;-78
2023/11/10 09:01:14;;;;;;;6.97;4.18;;;308.00;2304.00;;;;;;5053350;28;20013;-79
2023/11/10 09:03:40;;;;;;;4.63;2.63;;;332.80;2329.60;;;;;;5035880;28;20390;-79
2023/11/10 09:06:05;;;;;;;6.05;3.10;;;333.00;2329.60;;;;;;5035962;28;20059;-80
2023/11/10 09:08:31;;;;;;;7.40;3.58;;;333.30;2329.60;;;;;;5035984;28;20115;-82
2023/11/10 09:10:57;;;;;;;6.97;2.97;;;333.40;2329.60;;;;;;5036097;28;20032;-84
2023/11/10 09:13:23;;;;;;;6.63;3.05;;;333.50;2329.60;;;;;;5036270;28;20479;-84
2023/11/10 09:15:48;;;;;;;5.90;3.10;;;333.50;2329.60;;;;;;5035802;28;20501;-82
2023/11/10 09:18:15;;;;;;;5.90;3.15;;;333.50;2329.60;;;;;;5052669;28;20049;-79
2023/11/10 09:20:41;;;;;;;6.97;3.75;;;333.40;2329.60;;;;;;5035093;28;20506;-77
2023/11/10 09:23:07;;;;;;;7.45;3.90;;;333.40;2329.60;;;;;;5035064;28;20021;-78
2023/11/10 09:25:32;;;;;;;5.97;3.50;;;333.30;2329.60;;;;;;5035360;28;20394;-79
2023/11/10 09:27:58;;;;;;;7.57;3.10;;;333.40;2329.60;;;;;;5035172;28;20057;-77
2023/11/10 09:30:26;;;;;;;6.35;2.85;;;333.40;2329.60;;;;;;5034511;28;20025;-76
2023/11/10 09:32:53;;;;;;;10.15;3.45;;;333.40;2329.60;;;;;;5052487;28;20029;-75
2023/11/10 09:35:19;;;;;;;5.47;3.28;;;333.50;2329.60;;;;;;5039646;28;20056;-76
2023/11/10 09:37:46;;;;;;;7.78;4.22;;;333.50;2329.60;;;;;;5034638;28;20549;-78
2023/11/10 09:40:13;;;;;;;7.68;3.20;;;333.50;2329.60;;;;;;5034552;28;20033;-76
2023/11/10 09:42:42;;;;;;;7.47;3.85;;;333.60;2329.60;;;;;;5034550;28;20037;-79
2023/11/10 09:45:08;;;;;;;11.52;4.43;;;333.70;2329.60;;;;;;5035493;28;20052;-76
2023/11/10 09:47:35;;;;;;;7.78;4.35;;;358.50;2329.60;;;;;;5052634;28;20053;-78
2023/11/10 09:50:02;;;;;;;7.20;4.28;;;358.80;2329.60;;;;;;5053325;28;20024;-80
2023/11/10 09:52:34;;;;;;;10.82;4.10;;;359.00;2329.60;;;;;;5035832;28;20043;-85
2023/11/10 09:55:00;;;;;;;11.50;4.00;;;384.00;2329.60;;;;;;5031549;28;20032;-84
2023/11/10 09:57:28;;;;;;;6.68;3.67;;;384.00;2329.60;;;;;;5035551;28;20067;-85
2023/11/10 09:59:56;;;;;;;5.95;3.50;;;384.00;2329.60;;;;;;5040378;28;20064;-82
2023/11/10 10:02:21;;;;;;;6.38;3.97;;;359.20;2329.60;;;;;;5034428;28;20537;-84
2023/11/10 10:04:48;;;;;;;5.97;3.88;;;359.00;2329.60;;;;;;5041700;28;20029;-85
2023/11/10 10:07:16;;;;;;;7.78;4.68;;;358.80;2329.60;;;;;;5034167;28;20444;-83
2023/11/10 10:09:43;;;;;;;12.38;4.85;;;358.70;2329.60;;;;;;5063597;28;20021;-79
2023/11/10 10:12:10;;;;;;;7.28;4.45;;;358.70;2329.60;;;;;;5072066;28;20059;-77
2023/11/10 10:14:39;;;;;;;11.27;3.72;;;358.50;2329.60;;;;;;5038811;28;20026;-80
2023/11/10 10:17:06;;;;;;;6.43;3.83;;;358.50;2329.60;;;;;;5040112;28;20063;-80
2023/11/10 10:19:32;;;;;;;6.75;3.50;;;358.40;2329.60;;;;;;5038388;28;20552;-81
2023/11/10 10:21:59;;;;;;;5.07;3.50;;;333.70;2329.60;;;;;;5037856;28;20033;-80
2023/11/10 10:24:25;;;;;;;7.60;3.97;;;333.70;2329.60;;;;;;5032090;28;20025;-81
2023/11/10 10:26:51;;;;;;;8.05;4.13;;;333.70;2329.60;;;;;;5039198;28;20441;-82
2023/11/10 10:29:18;;;;;;;6.65;3.60;;;333.70;2329.60;;;;;;5038958;28;20025;-81
2023/11/10 10:31:47;;;;;;;6.25;3.63;;;333.70;2329.60;;;;;;5033855;28;20034;-79
2023/11/10 10:34:17;;;;;;;7.68;3.45;;;333.70;2329.60;;;;;;5030292;28;20115;-86
2023/11/10 10:36:44;;;;;;;7.57;4.50;;;333.70;2329.60;;;;;;5038556;28;20078;-83
2023/11/10 10:39:17;;;;;;;20.17;10.02;;;333.70;2329.60;;;;;;5038735;28;20032;-83
2023/11/10 10:41:44;;;;;;;9.02;3.70;;;333.70;2329.60;;;;;;5035193;28;20040;-82
2023/11/10 10:44:09;;;;;;;7.47;4.57;;;333.70;2329.60;;;;;;5037930;28;20026;-82
2023/11/10 10:46:37;;;;;;;10.40;4.40;;;333.70;2329.60;;;;;;5035152;28;20071;-83
2023/11/10 10:49:04;;;;;;;13.75;6.55;;;333.70;2329.60;;;;;;5034966;28;20487;-84
2023/11/10 10:51:36;;;;;;;9.07;4.05;;;333.70;2329.60;;;;;;5049244;28;20025;-82
2023/11/10 10:54:07;;;;;;;7.93;4.82;;;358.40;2329.60;;;;;;5033403;28;20100;-82
2023/11/10 10:56:37;;;;;;;9.35;5.75;;;358.40;2329.60;;;;;;5050099;28;20051;-80
2023/11/10 10:59:07;;;;;;;13.02;5.88;;;358.50;2329.60;;;;;;5033471;28;20044;-83
2023/11/10 11:01:36;;;;;;;10.23;4.85;;;358.50;2329.60;;;;;;5024271;28;20037;-82
2023/11/10 11:04:42;;;;;;;8.68;5.22;;;358.50;2329.60;;;;;;5034498;28;20025;-82
2023/11/10 11:07:12;;;;;;;8.75;4.05;;;358.50;2329.60;;;;;;4998524;28;20048;-83
2023/11/10 11:09:56;;;;;;;7.50;4.78;;;358.50;2329.60;;;;;;4998674;28;20035;-83
2023/11/10 11:12:40;;;;;;;12.20;5.80;;;358.50;2329.60;;;;;;4994996;28;20044;-85
2023/11/10 11:15:21;;;;;;;10.40;5.68;;;358.40;2329.60;;;;;;5009153;28;20029;-82
2023/11/10 11:18:19;;;;;;;11.00;6.65;;;358.40;2329.60;;;;;;5006641;28;20046;-81
2023/11/10 11:20:49;;;;;;;16.45;7.72;;;358.40;2329.60;;;;;;4925947;29;20111;-82
2023/11/10 11:23:17;;;;;;;11.07;6.00;;;358.40;2329.60;;;;;;4919812;29;20043;-81
2023/11/10 11:25:43;;;;;;;14.25;7.20;;;358.40;2329.60;;;;;;4909468;29;20074;-78
2023/11/10 11:28:09;;;;;;;12.32;6.25;;;358.40;2329.60;;;;;;4923517;29;20060;-84
2023/11/10 11:30:40;;;;;;;10.23;6.28;;;358.50;2329.60;;;;;;4909248;29;20028;-79
2023/11/10 11:33:11;;;;;;;11.45;6.85;;;358.50;2329.60;;;;;;4909007;29;20149;-84
2023/11/10 11:35:46;;;;;;;16.73;7.57;;;358.50;2329.60;;;;;;4920804;29;20076;-84
2023/11/10 11:38:24;;;;;;;14.75;5.80;;;358.50;2329.60;;;;;;4903758;29;20035;-80
2023/11/10 11:40:50;;;;;;;9.82;5.40;;;358.50;2329.60;;;;;;4919588;29;20039;-82
2023/11/10 11:43:21;;;;;;;13.88;6.85;;;358.50;2329.60;;;;;;4944017;28;20051;-80
2023/11/10 11:45:47;;;;;;;10.80;7.38;;;358.60;2329.60;;;;;;4948095;28;20058;-76
2023/11/10 11:48:15;;;;;;;9.43;6.47;;;358.60;2329.60;;;;;;4933401;28;20039;-77
2023/11/10 11:50:41;;;;;;;9.10;6.97;;;358.60;2329.60;;;;;;4946691;29;20038;-77
2023/11/10 11:53:07;;;;;;;10.82;8.27;;;358.60;2329.60;;;;;;4953065;28;20039;-80
2023/11/10 11:55:34;;;;;;;10.68;8.55;;;358.60;2329.60;;;;;;4930068;28;20038;-79
2023/11/10 11:58:01;;;;;;;12.50;7.70;;;358.60;2329.60;;;;;;4986411;28;20517;-80
2023/11/10 12:00:28;;;;;;;11.05;8.38;;;358.60;2329.60;;;;;;5029593;28;20033;-79
2023/11/10 12:02:56;;;;;;;12.65;6.75;;;358.60;2329.60;;;;;;5045201;28;20377;-76
2023/11/10 12:05:23;;;;;;;11.18;6.97;;;358.60;2329.60;;;;;;5042399;28;20029;-77
2023/11/10 12:07:49;;;;;;;15.38;8.43;;;358.50;2329.60;;;;;;5028480;28;20124;-76
2023/11/10 12:10:15;;;;;;;15.52;9.43;;;358.50;2329.60;;;;;;5043311;28;20064;-78
2023/11/10 12:12:41;;;;;;;16.98;10.13;;;358.50;2329.60;;;;;;5044681;28;20025;-77
2023/11/10 12:15:10;;;;;;;14.00;9.35;;;358.50;2329.60;;;;;;5048594;28;20551;-77
2023/11/10 12:17:37;;;;;;;22.33;11.88;;;358.50;2329.60;;;;;;5050142;28;20483;-77
2023/11/10 12:20:08;;;;;;;17.88;8.13;;;358.50;2329.60;;;;;;5028303;28;20026;-78
2023/11/10 12:22:34;;;;;;;18.45;9.07;;;358.50;2329.60;;;;;;5035914;28;20087;-76